Wind From: 11-12-2017 12:03 Until: 12-12-2017 06:00 warning for: Wind Level: Orange info button

Power and phone distribution networks may be disrupted for relatively long periods., Roofs and chimneys can be damaged. , Tree branches may break. , Vehicles can be deported. , Traffic may be disrupted, particularly on secondary roads in forest areas. Limit your trips. , Limit your speed in highway driving, especially if you drive a vehicle or hitch sensitive to wind. , Do not go for walks in forests or along the coast., In town, be vigilant against possible falling objects., Do not work on roofs and do not touch any electrical line fallen on the ground., Store or secure sensitive objects to wind or likely to be damaged., Always install power generators outside buildings. 


Meteo18 Weather Cam more information Meteo18 Weather Cam


Thunder radar more information blitzortung!


Rain radar more information rain snow radar


Visit our other weather sites:

Template documentation
and downloads

And another site



Weather Underground History page Text

Daily Summary for May 15, 2017 Units:  Both    English   Metric
« Previous Day
Next Day »
Daily Weekly Monthly Yearly Custom
  High: Low: Average:
Temperature: 77.4 °F /  25.2 °C 45 °F /  7.2 °C 60.8 °F /  16 °C
Dew Point: 56.7 °F /  13.7 °C 43.3 °F /  6.3 °C 49.8 °F /  9.9 °C
Humidity: 95 % 41 % 70 %
Wind Speed: 4 mph /  6.4 km/h - 0.6 mph /  0.9 km/h
Wind Gust: 8 mph /  12.9 km/h - -
Wind:- - South
Pressure: 30.4 in /  1031.0 hPa 30.4 in /  1027.7 hPa -
Precipitation: 0 in /  0.0 mm    
Historical Graphs
 
 
Tabular Data for May 15, 2017
Time Temperature Dew Point Pressure Wind Wind Speed Wind Gust Humidity Rainfall Rate (Hourly)
00:02 51.6 °F /  10.9 °C 47.3 °F /  8.5 °C 30.4 in /  1027.7 hPa Calm     85 % 0 in /  0.0 mm
00:07 51.3 °F /  10.7 °C 47.3 °F /  8.5 °C 30.4 in /  1028.0 hPa Calm   1 mph /  1.6 km/h 86 % 0 in /  0.0 mm
00:12 50.7 °F /  10.4 °C 46.9 °F /  8.3 °C 30.4 in /  1028.0 hPa Calm   1 mph /  1.6 km/h 87 % 0 in /  0.0 mm
00:17 50.7 °F /  10.4 °C 46.8 °F /  8.2 °C 30.4 in /  1028.0 hPa Calm   1 mph /  1.6 km/h 86 % 0 in /  0.0 mm
00:22 50.7 °F /  10.4 °C 46.8 °F /  8.2 °C 30.4 in /  1028.0 hPa Calm   2 mph /  3.2 km/h 86 % 0 in /  0.0 mm
00:32 50.7 °F /  10.4 °C 46.8 °F /  8.2 °C 30.4 in /  1028.0 hPa Calm   2 mph /  3.2 km/h 86 % 0 in /  0.0 mm
00:42 51.1 °F /  10.6 °C 46.4 °F /  8.0 °C 30.4 in /  1028.0 hPa Calm     84 % 0 in /  0.0 mm
00:52 50.5 °F /  10.3 °C 46.2 °F /  7.9 °C 30.4 in /  1028.0 hPa Calm     85 % 0 in /  0.0 mm
00:57 50.5 °F /  10.3 °C 46.6 °F /  8.1 °C 30.4 in /  1028.0 hPa Calm     86 % 0 in /  0.0 mm
01:02 50.4 °F /  10.2 °C 46.6 °F /  8.1 °C 30.4 in /  1028.0 hPa Calm     87 % 0 in /  0.0 mm
01:12 49.8 °F /  9.9 °C 46 °F /  7.8 °C 30.4 in /  1028.0 hPa Calm     87 % 0 in /  0.0 mm
01:17 50 °F /  10.0 °C 46.6 °F /  8.1 °C 30.4 in /  1028.3 hPa Calm     88 % 0 in /  0.0 mm
01:22 49.8 °F /  9.9 °C 46.4 °F /  8.0 °C 30.4 in /  1028.0 hPa Calm     88 % 0 in /  0.0 mm
01:32 49.6 °F /  9.8 °C 46.2 °F /  7.9 °C 30.4 in /  1028.0 hPa Calm     88 % 0 in /  0.0 mm
01:37 49.3 °F /  9.6 °C 45.9 °F /  7.7 °C 30.4 in /  1028.0 hPa Calm     88 % 0 in /  0.0 mm
01:42 48.9 °F /  9.4 °C 45.9 °F /  7.7 °C 30.4 in /  1028.0 hPa Calm     89 % 0 in /  0.0 mm
01:47 48.7 °F /  9.3 °C 45.7 °F /  7.6 °C 30.4 in /  1028.3 hPa Calm     89 % 0 in /  0.0 mm
01:52 48.6 °F /  9.2 °C 45.7 °F /  7.6 °C 30.4 in /  1028.3 hPa Calm     90 % 0 in /  0.0 mm
01:57 48.7 °F /  9.3 °C 45.9 °F /  7.7 °C 30.4 in /  1028.3 hPa Calm     90 % 0 in /  0.0 mm
02:02 48.9 °F /  9.4 °C 45.9 °F /  7.7 °C 30.4 in /  1028.3 hPa Calm     89 % 0 in /  0.0 mm
02:12 48.9 °F /  9.4 °C 45.9 °F /  7.7 °C 30.4 in /  1028.3 hPa Calm     89 % 0 in /  0.0 mm
02:17 48.9 °F /  9.4 °C 45.9 °F /  7.7 °C 30.4 in /  1028.3 hPa Calm     89 % 0 in /  0.0 mm
02:22 48.7 °F /  9.3 °C 45.3 °F /  7.4 °C 30.4 in /  1028.3 hPa Calm     88 % 0 in /  0.0 mm
02:32 48.6 °F /  9.2 °C 45.5 °F /  7.5 °C 30.4 in /  1028.3 hPa Calm     89 % 0 in /  0.0 mm
02:42 48.2 °F /  9.0 °C 45.3 °F /  7.4 °C 30.4 in /  1028.3 hPa Calm     90 % 0 in /  0.0 mm
02:47 48 °F /  8.9 °C 45.1 °F /  7.3 °C 30.4 in /  1028.3 hPa Calm     90 % 0 in /  0.0 mm
02:52 47.7 °F /  8.7 °C 45 °F /  7.2 °C 30.4 in /  1028.3 hPa Calm     90 % 0 in /  0.0 mm
02:57 47.7 °F /  8.7 °C 45 °F /  7.2 °C 30.4 in /  1028.3 hPa Calm     90 % 0 in /  0.0 mm
03:02 47.3 °F /  8.5 °C 44.6 °F /  7.0 °C 30.4 in /  1028.3 hPa Calm     90 % 0 in /  0.0 mm
03:12 47.1 °F /  8.4 °C 45 °F /  7.2 °C 30.4 in /  1028.7 hPa Calm     92 % 0 in /  0.0 mm
03:17 47.1 °F /  8.4 °C 45 °F /  7.2 °C 30.4 in /  1028.7 hPa Calm     92 % 0 in /  0.0 mm
03:22 47.1 °F /  8.4 °C 45 °F /  7.2 °C 30.4 in /  1028.7 hPa Calm     92 % 0 in /  0.0 mm
03:27 46.9 °F /  8.3 °C 44.8 °F /  7.1 °C 30.4 in /  1028.7 hPa Calm     92 % 0 in /  0.0 mm
03:32 46.8 °F /  8.2 °C 44.6 °F /  7.0 °C 30.4 in /  1028.7 hPa Calm     92 % 0 in /  0.0 mm
03:37 46.8 °F /  8.2 °C 44.6 °F /  7.0 °C 30.4 in /  1028.7 hPa Calm     92 % 0 in /  0.0 mm
03:42 46.8 °F /  8.2 °C 44.6 °F /  7.0 °C 30.4 in /  1028.7 hPa Calm     92 % 0 in /  0.0 mm
03:47 46.8 °F /  8.2 °C 44.8 °F /  7.1 °C 30.4 in /  1028.7 hPa Calm     93 % 0 in /  0.0 mm
03:52 46.8 °F /  8.2 °C 44.8 °F /  7.1 °C 30.4 in /  1028.7 hPa Calm     93 % 0 in /  0.0 mm
03:57 46.6 °F /  8.1 °C 44.4 °F /  6.9 °C 30.4 in /  1028.7 hPa Calm     92 % 0 in /  0.0 mm
04:02 46.6 °F /  8.1 °C 44.6 °F /  7.0 °C 30.4 in /  1028.7 hPa Calm     93 % 0 in /  0.0 mm
04:07 46.6 °F /  8.1 °C 44.4 °F /  6.9 °C 30.4 in /  1028.7 hPa Calm     92 % 0 in /  0.0 mm
04:12 46.4 °F /  8.0 °C 44.4 °F /  6.9 °C 30.4 in /  1028.7 hPa Calm     93 % 0 in /  0.0 mm
04:17 46.4 °F /  8.0 °C 44.4 °F /  6.9 °C 30.4 in /  1028.7 hPa Calm     93 % 0 in /  0.0 mm
04:22 46.6 °F /  8.1 °C 44.6 °F /  7.0 °C 30.4 in /  1028.7 hPa Calm     93 % 0 in /  0.0 mm
04:27 46.4 °F /  8.0 °C 44.4 °F /  6.9 °C 30.4 in /  1028.7 hPa Calm     93 % 0 in /  0.0 mm
04:32 46.4 °F /  8.0 °C 44.4 °F /  6.9 °C 30.4 in /  1028.7 hPa Calm     93 % 0 in /  0.0 mm
04:37 46.6 °F /  8.1 °C 44.6 °F /  7.0 °C 30.4 in /  1029.0 hPa Calm     93 % 0 in /  0.0 mm
04:42 46.6 °F /  8.1 °C 44.6 °F /  7.0 °C 30.4 in /  1029.0 hPa Calm     93 % 0 in /  0.0 mm
04:47 46.2 °F /  7.9 °C 44.2 °F /  6.8 °C 30.4 in /  1028.7 hPa Calm     93 % 0 in /  0.0 mm
04:52 46.2 °F /  7.9 °C 44.2 °F /  6.8 °C 30.4 in /  1029.0 hPa Calm     93 % 0 in /  0.0 mm
05:02 46 °F /  7.8 °C 44.1 °F /  6.7 °C 30.4 in /  1028.7 hPa Calm     93 % 0 in /  0.0 mm
05:12 45.7 °F /  7.6 °C 43.7 °F /  6.5 °C 30.4 in /  1028.7 hPa Calm     93 % 0 in /  0.0 mm
05:17 45.7 °F /  7.6 °C 44.1 °F /  6.7 °C 30.4 in /  1028.7 hPa Calm     94 % 0 in /  0.0 mm
05:22 45.7 °F /  7.6 °C 44.1 °F /  6.7 °C 30.4 in /  1028.7 hPa Calm     94 % 0 in /  0.0 mm
05:32 45.3 °F /  7.4 °C 43.7 °F /  6.5 °C 30.4 in /  1029.0 hPa Calm     94 % 0 in /  0.0 mm
05:37 45.5 °F /  7.5 °C 43.9 °F /  6.6 °C 30.4 in /  1029.0 hPa Calm     94 % 0 in /  0.0 mm
05:42 45.5 °F /  7.5 °C 43.9 °F /  6.6 °C 30.4 in /  1029.0 hPa Calm     94 % 0 in /  0.0 mm
05:47 45.7 °F /  7.6 °C 44.4 °F /  6.9 °C 30.4 in /  1029.0 hPa Calm     95 % 0 in /  0.0 mm
05:52 45.9 °F /  7.7 °C 44.2 °F /  6.8 °C 30.4 in /  1029.0 hPa Calm     94 % 0 in /  0.0 mm
06:02 45.9 °F /  7.7 °C 44.4 °F /  6.9 °C 30.4 in /  1029.0 hPa Calm     95 % 0 in /  0.0 mm
06:12 45.7 °F /  7.6 °C 44.1 °F /  6.7 °C 30.4 in /  1029.0 hPa Calm     94 % 0 in /  0.0 mm
06:17 45.7 °F /  7.6 °C 44.1 °F /  6.7 °C 30.4 in /  1029.0 hPa Calm     94 % 0 in /  0.0 mm
06:22 45.3 °F /  7.4 °C 43.7 °F /  6.5 °C 30.4 in /  1029.0 hPa Calm     94 % 0 in /  0.0 mm
06:27 45.1 °F /  7.3 °C 43.5 °F /  6.4 °C 30.4 in /  1029.0 hPa Calm     94 % 0 in /  0.0 mm
06:32 45.3 °F /  7.4 °C 44.1 °F /  6.7 °C 30.4 in /  1029.0 hPa Calm     95 % 0 in /  0.0 mm
06:37 45.3 °F /  7.4 °C 43.7 °F /  6.5 °C 30.4 in /  1029.0 hPa Calm     94 % 0 in /  0.0 mm
06:42 45.3 °F /  7.4 °C 43.7 °F /  6.5 °C 30.4 in /  1029.3 hPa Calm     94 % 0 in /  0.0 mm
06:47 45.1 °F /  7.3 °C 43.5 °F /  6.4 °C 30.4 in /  1029.0 hPa Calm     94 % 0 in /  0.0 mm
06:52 45.1 °F /  7.3 °C 43.5 °F /  6.4 °C 30.4 in /  1029.3 hPa Calm     94 % 0 in /  0.0 mm
06:57 45 °F /  7.2 °C 43.3 °F /  6.3 °C 30.4 in /  1029.3 hPa Calm     94 % 0 in /  0.0 mm
07:02 45.1 °F /  7.3 °C 43.9 °F /  6.6 °C 30.4 in /  1029.3 hPa Calm     95 % 0 in /  0.0 mm
07:12 45.7 °F /  7.6 °C 44.4 °F /  6.9 °C 30.4 in /  1029.3 hPa Calm     95 % 0 in /  0.0 mm
07:17 45.7 °F /  7.6 °C 44.4 °F /  6.9 °C 30.4 in /  1029.3 hPa Calm     95 % 0 in /  0.0 mm
07:27 46 °F /  7.8 °C 44.6 °F /  7.0 °C 30.4 in /  1029.7 hPa Calm     95 % 0 in /  0.0 mm
07:32 46.6 °F /  8.1 °C 45.1 °F /  7.3 °C 30.4 in /  1029.7 hPa Calm     95 % 0 in /  0.0 mm
07:37 46.9 °F /  8.3 °C 45.5 °F /  7.5 °C 30.4 in /  1029.7 hPa Calm     95 % 0 in /  0.0 mm
07:42 47.3 °F /  8.5 °C 45.9 °F /  7.7 °C 30.4 in /  1029.7 hPa Calm     95 % 0 in /  0.0 mm
07:47 47.7 °F /  8.7 °C 46.2 °F /  7.9 °C 30.4 in /  1029.7 hPa Calm     95 % 0 in /  0.0 mm
07:52 47.8 °F /  8.8 °C 46.2 °F /  7.9 °C 30.4 in /  1029.7 hPa Calm     94 % 0 in /  0.0 mm
07:57 48.4 °F /  9.1 °C 46.8 °F /  8.2 °C 30.4 in /  1030.0 hPa Calm     94 % 0 in /  0.0 mm
08:02 48.7 °F /  9.3 °C 47.1 °F /  8.4 °C 30.4 in /  1030.0 hPa Calm     94 % 0 in /  0.0 mm
08:12 50.2 °F /  10.1 °C 48.6 °F /  9.2 °C 30.4 in /  1030.0 hPa Calm     94 % 0 in /  0.0 mm
08:17 50.7 °F /  10.4 °C 49.1 °F /  9.5 °C 30.4 in /  1030.0 hPa Calm     94 % 0 in /  0.0 mm
08:22 51.3 °F /  10.7 °C 49.3 °F /  9.6 °C 30.4 in /  1030.0 hPa Calm     93 % 0 in /  0.0 mm
08:32 53.2 °F /  11.8 °C 50.9 °F /  10.5 °C 30.4 in /  1030.0 hPa Calm     92 % 0 in /  0.0 mm
08:37 54.1 °F /  12.3 °C 50.9 °F /  10.5 °C 30.4 in /  1030.0 hPa Calm     89 % 0 in /  0.0 mm
08:42 55.2 °F /  12.9 °C 51.4 °F /  10.8 °C 30.4 in /  1030.0 hPa Calm     87 % 0 in /  0.0 mm
08:47 56.3 °F /  13.5 °C 51.4 °F /  10.8 °C 30.4 in /  1030.0 hPa Calm     84 % 0 in /  0.0 mm
08:52 55.9 °F /  13.3 °C 50.5 °F /  10.3 °C 30.4 in /  1030.0 hPa Calm     82 % 0 in /  0.0 mm
08:57 55.6 °F /  13.1 °C 50.9 °F /  10.5 °C 30.4 in /  1030.0 hPa Calm     84 % 0 in /  0.0 mm
09:02 56.1 °F /  13.4 °C 51.4 °F /  10.8 °C 30.4 in /  1030.0 hPa Calm     84 % 0 in /  0.0 mm
09:12 57.2 °F /  14.0 °C 51.8 °F /  11.0 °C 30.4 in /  1030.0 hPa Calm     82 % 0 in /  0.0 mm
09:17 57.9 °F /  14.4 °C 51.8 °F /  11.0 °C 30.4 in /  1030.4 hPa Calm     80 % 0 in /  0.0 mm
09:22 58.1 °F /  14.5 °C 52.3 °F /  11.3 °C 30.4 in /  1030.4 hPa Calm     81 % 0 in /  0.0 mm
09:27 58.5 °F /  14.7 °C 52.3 °F /  11.3 °C 30.4 in /  1030.4 hPa SSW 1 mph /  1.6 km/h 2 mph /  3.2 km/h 80 % 0 in /  0.0 mm
09:32 58.8 °F /  14.9 °C 52.7 °F /  11.5 °C 30.4 in /  1030.4 hPa South 1 mph /  1.6 km/h 3 mph /  4.8 km/h 80 % 0 in /  0.0 mm
09:37 59.2 °F /  15.1 °C 53.4 °F /  11.9 °C 30.4 in /  1030.4 hPa South 1 mph /  1.6 km/h 3 mph /  4.8 km/h 81 % 0 in /  0.0 mm
09:42 59.7 °F /  15.4 °C 52.9 °F /  11.6 °C 30.4 in /  1030.4 hPa Calm   3 mph /  4.8 km/h 78 % 0 in /  0.0 mm
09:52 60.8 °F /  16.0 °C 53.2 °F /  11.8 °C 30.4 in /  1030.4 hPa Calm   3 mph /  4.8 km/h 76 % 0 in /  0.0 mm
10:02 62.2 °F /  16.8 °C 53.1 °F /  11.7 °C 30.4 in /  1030.7 hPa Calm   3 mph /  4.8 km/h 72 % 0 in /  0.0 mm
10:12 62.4 °F /  16.9 °C 52.2 °F /  11.2 °C 30.4 in /  1030.7 hPa SSW 1 mph /  1.6 km/h 2 mph /  3.2 km/h 69 % 0 in /  0.0 mm
10:17 62.8 °F /  17.1 °C 53.2 °F /  11.8 °C 30.4 in /  1030.7 hPa Calm   2 mph /  3.2 km/h 71 % 0 in /  0.0 mm
10:22 63.3 °F /  17.4 °C 53.4 °F /  11.9 °C 30.4 in /  1030.7 hPa South 1 mph /  1.6 km/h 2 mph /  3.2 km/h 70 % 0 in /  0.0 mm
10:32 64.2 °F /  17.9 °C 53.8 °F /  12.1 °C 30.4 in /  1030.7 hPa SW 2 mph /  3.2 km/h 2 mph /  3.2 km/h 69 % 0 in /  0.0 mm
10:42 65.5 °F /  18.6 °C 53.1 °F /  11.7 °C 30.4 in /  1030.7 hPa SW 3 mph /  4.8 km/h 3 mph /  4.8 km/h 64 % 0 in /  0.0 mm
10:47 65.7 °F /  18.7 °C 53.6 °F /  12.0 °C 30.4 in /  1030.7 hPa SSW 1 mph /  1.6 km/h 3 mph /  4.8 km/h 65 % 0 in /  0.0 mm
10:52 66.2 °F /  19.0 °C 53.6 °F /  12.0 °C 30.4 in /  1030.7 hPa SSW 2 mph /  3.2 km/h 5 mph /  8.0 km/h 64 % 0 in /  0.0 mm
10:57 66 °F /  18.9 °C 52.7 °F /  11.5 °C 30.4 in /  1030.7 hPa SSE 2 mph /  3.2 km/h 5 mph /  8.0 km/h 62 % 0 in /  0.0 mm
11:02 65.7 °F /  18.7 °C 52.7 °F /  11.5 °C 30.4 in /  1031.0 hPa SSE 1 mph /  1.6 km/h 5 mph /  8.0 km/h 63 % 0 in /  0.0 mm
11:12 65.7 °F /  18.7 °C 53.2 °F /  11.8 °C 30.4 in /  1031.0 hPa SW 1 mph /  1.6 km/h 6 mph /  9.7 km/h 64 % 0 in /  0.0 mm
11:17 65.7 °F /  18.7 °C 51.8 °F /  11.0 °C 30.4 in /  1031.0 hPa SW 1 mph /  1.6 km/h 6 mph /  9.7 km/h 61 % 0 in /  0.0 mm
11:22 65.8 °F /  18.8 °C 53.2 °F /  11.8 °C 30.4 in /  1030.7 hPa ESE 3 mph /  4.8 km/h 5 mph /  8.0 km/h 64 % 0 in /  0.0 mm
11:32 66 °F /  18.9 °C 53.4 °F /  11.9 °C 30.4 in /  1031.0 hPa SSW 3 mph /  4.8 km/h 5 mph /  8.0 km/h 64 % 0 in /  0.0 mm
11:42 66.2 °F /  19.0 °C 54.1 °F /  12.3 °C 30.4 in /  1031.0 hPa East 3 mph /  4.8 km/h 4 mph /  6.4 km/h 65 % 0 in /  0.0 mm
11:52 66.7 °F /  19.3 °C 53.2 °F /  11.8 °C 30.4 in /  1030.7 hPa SE 2 mph /  3.2 km/h 4 mph /  6.4 km/h 62 % 0 in /  0.0 mm
11:57 66.9 °F /  19.4 °C 52.5 °F /  11.4 °C 30.4 in /  1030.7 hPa South 1 mph /  1.6 km/h 4 mph /  6.4 km/h 60 % 0 in /  0.0 mm
12:02 67.1 °F /  19.5 °C 52.7 °F /  11.5 °C 30.4 in /  1030.7 hPa SE 1 mph /  1.6 km/h 5 mph /  8.0 km/h 60 % 0 in /  0.0 mm
12:12 67.6 °F /  19.8 °C 53.8 °F /  12.1 °C 30.4 in /  1030.7 hPa ESE 3 mph /  4.8 km/h 6 mph /  9.7 km/h 61 % 0 in /  0.0 mm
12:17 68.4 °F /  20.2 °C 52 °F /  11.1 °C 30.4 in /  1030.7 hPa SSE 2 mph /  3.2 km/h 6 mph /  9.7 km/h 56 % 0 in /  0.0 mm
12:22 68.4 °F /  20.2 °C 50.5 °F /  10.3 °C 30.4 in /  1030.7 hPa SSW 1 mph /  1.6 km/h 5 mph /  8.0 km/h 53 % 0 in /  0.0 mm
12:27 68.7 °F /  20.4 °C 52.3 °F /  11.3 °C 30.4 in /  1030.7 hPa SW 4 mph /  6.4 km/h 5 mph /  8.0 km/h 56 % 0 in /  0.0 mm
12:32 68.7 °F /  20.4 °C 52.9 °F /  11.6 °C 30.4 in /  1030.7 hPa SW 3 mph /  4.8 km/h 4 mph /  6.4 km/h 57 % 0 in /  0.0 mm
12:37 69.1 °F /  20.6 °C 52.2 °F /  11.2 °C 30.4 in /  1030.7 hPa ESE 3 mph /  4.8 km/h 5 mph /  8.0 km/h 55 % 0 in /  0.0 mm
12:42 69.4 °F /  20.8 °C 52.5 °F /  11.4 °C 30.4 in /  1030.7 hPa Calm   5 mph /  8.0 km/h 55 % 0 in /  0.0 mm
12:52 69.3 °F /  20.7 °C 52.3 °F /  11.3 °C 30.4 in /  1030.7 hPa SE 1 mph /  1.6 km/h 7 mph /  11.3 km/h 55 % 0 in /  0.0 mm
12:57 69.1 °F /  20.6 °C 54.1 °F /  12.3 °C 30.4 in /  1030.7 hPa SE 1 mph /  1.6 km/h 7 mph /  11.3 km/h 59 % 0 in /  0.0 mm
13:02 69.4 °F /  20.8 °C 54 °F /  12.2 °C 30.4 in /  1030.7 hPa ENE 1 mph /  1.6 km/h 7 mph /  11.3 km/h 58 % 0 in /  0.0 mm
13:12 69.4 °F /  20.8 °C 52.2 °F /  11.2 °C 30.4 in /  1030.7 hPa SSW 3 mph /  4.8 km/h 7 mph /  11.3 km/h 54 % 0 in /  0.0 mm
13:17 69.4 °F /  20.8 °C 52.2 °F /  11.2 °C 30.4 in /  1030.7 hPa SE 1 mph /  1.6 km/h 7 mph /  11.3 km/h 54 % 0 in /  0.0 mm
13:22 69.3 °F /  20.7 °C 52.3 °F /  11.3 °C 30.4 in /  1030.4 hPa East 2 mph /  3.2 km/h 7 mph /  11.3 km/h 55 % 0 in /  0.0 mm
13:32 70 °F /  21.1 °C 54 °F /  12.2 °C 30.4 in /  1030.4 hPa Calm   6 mph /  9.7 km/h 57 % 0 in /  0.0 mm
13:37 70.5 °F /  21.4 °C 53.1 °F /  11.7 °C 30.4 in /  1030.4 hPa NE 2 mph /  3.2 km/h 6 mph /  9.7 km/h 54 % 0 in /  0.0 mm
13:42 70.2 °F /  21.2 °C 51.8 °F /  11.0 °C 30.4 in /  1030.4 hPa ENE 2 mph /  3.2 km/h 5 mph /  8.0 km/h 52 % 0 in /  0.0 mm
13:47 70.2 °F /  21.2 °C 52.2 °F /  11.2 °C 30.4 in /  1030.4 hPa ENE 4 mph /  6.4 km/h 5 mph /  8.0 km/h 53 % 0 in /  0.0 mm
13:52 70.3 °F /  21.3 °C 51.8 °F /  11.0 °C 30.4 in /  1030.4 hPa ESE 3 mph /  4.8 km/h 4 mph /  6.4 km/h 52 % 0 in /  0.0 mm
13:57 71.2 °F /  21.8 °C 53.8 °F /  12.1 °C 30.4 in /  1030.4 hPa ENE 3 mph /  4.8 km/h 5 mph /  8.0 km/h 54 % 0 in /  0.0 mm
14:02 71.1 °F /  21.7 °C 52 °F /  11.1 °C 30.4 in /  1030.4 hPa SW 1 mph /  1.6 km/h 5 mph /  8.0 km/h 51 % 0 in /  0.0 mm
14:12 70.7 °F /  21.5 °C 52.2 °F /  11.2 °C 30.4 in /  1030.4 hPa East 2 mph /  3.2 km/h 5 mph /  8.0 km/h 52 % 0 in /  0.0 mm
14:17 71.6 °F /  22.0 °C 51.4 °F /  10.8 °C 30.4 in /  1030.4 hPa Calm   5 mph /  8.0 km/h 49 % 0 in /  0.0 mm
14:22 72.3 °F /  22.4 °C 51.4 °F /  10.8 °C 30.4 in /  1030.4 hPa Calm   5 mph /  8.0 km/h 48 % 0 in /  0.0 mm
14:27 72.7 °F /  22.6 °C 52.3 °F /  11.3 °C 30.4 in /  1030.4 hPa WSW 2 mph /  3.2 km/h 5 mph /  8.0 km/h 49 % 0 in /  0.0 mm
14:32 72.3 °F /  22.4 °C 52.2 °F /  11.2 °C 30.4 in /  1030.4 hPa ESE 1 mph /  1.6 km/h 4 mph /  6.4 km/h 49 % 0 in /  0.0 mm
14:37 72.9 °F /  22.7 °C 52 °F /  11.1 °C 30.4 in /  1030.4 hPa SW 2 mph /  3.2 km/h 4 mph /  6.4 km/h 48 % 0 in /  0.0 mm
14:42 73 °F /  22.8 °C 52.7 °F /  11.5 °C 30.4 in /  1030.4 hPa SE 1 mph /  1.6 km/h 5 mph /  8.0 km/h 49 % 0 in /  0.0 mm
14:47 73.6 °F /  23.1 °C 51.4 °F /  10.8 °C 30.4 in /  1030.4 hPa ESE 2 mph /  3.2 km/h 5 mph /  8.0 km/h 46 % 0 in /  0.0 mm
14:52 73.4 °F /  23.0 °C 51.4 °F /  10.8 °C 30.4 in /  1030.0 hPa East 1 mph /  1.6 km/h 5 mph /  8.0 km/h 46 % 0 in /  0.0 mm
14:57 73.4 °F /  23.0 °C 52 °F /  11.1 °C 30.4 in /  1030.4 hPa South 2 mph /  3.2 km/h 5 mph /  8.0 km/h 47 % 0 in /  0.0 mm
15:02 73.2 °F /  22.9 °C 48.7 °F /  9.3 °C 30.4 in /  1030.0 hPa Calm   5 mph /  8.0 km/h 42 % 0 in /  0.0 mm
15:12 72.3 °F /  22.4 °C 51.4 °F /  10.8 °C 30.4 in /  1030.0 hPa South 3 mph /  4.8 km/h 6 mph /  9.7 km/h 48 % 0 in /  0.0 mm
15:17 72.9 °F /  22.7 °C 48.4 °F /  9.1 °C 30.4 in /  1030.0 hPa Calm   6 mph /  9.7 km/h 42 % 0 in /  0.0 mm
15:22 73.4 °F /  23.0 °C 48.9 °F /  9.4 °C 30.4 in /  1030.0 hPa SSE 1 mph /  1.6 km/h 5 mph /  8.0 km/h 42 % 0 in /  0.0 mm
15:27 73.6 °F /  23.1 °C 49.6 °F /  9.8 °C 30.4 in /  1030.0 hPa Calm   6 mph /  9.7 km/h 43 % 0 in /  0.0 mm
15:32 73 °F /  22.8 °C 50.4 °F /  10.2 °C 30.4 in /  1030.0 hPa SW 3 mph /  4.8 km/h 6 mph /  9.7 km/h 45 % 0 in /  0.0 mm
15:42 73 °F /  22.8 °C 52.2 °F /  11.2 °C 30.4 in /  1029.7 hPa East 1 mph /  1.6 km/h 5 mph /  8.0 km/h 48 % 0 in /  0.0 mm
15:47 72.7 °F /  22.6 °C 50.7 °F /  10.4 °C 30.4 in /  1030.0 hPa WSW 1 mph /  1.6 km/h 6 mph /  9.7 km/h 46 % 0 in /  0.0 mm
15:57 72.9 °F /  22.7 °C 53.1 °F /  11.7 °C 30.4 in /  1029.7 hPa SSW 1 mph /  1.6 km/h 6 mph /  9.7 km/h 50 % 0 in /  0.0 mm
16:02 72.9 °F /  22.7 °C 51.4 °F /  10.8 °C 30.4 in /  1029.7 hPa Calm   3 mph /  4.8 km/h 47 % 0 in /  0.0 mm
16:12 73.6 °F /  23.1 °C 52.2 °F /  11.2 °C 30.4 in /  1029.7 hPa ESE 2 mph /  3.2 km/h 3 mph /  4.8 km/h 47 % 0 in /  0.0 mm
16:17 74.1 °F /  23.4 °C 50.2 °F /  10.1 °C 30.4 in /  1029.7 hPa Calm   3 mph /  4.8 km/h 43 % 0 in /  0.0 mm
16:27 74.8 °F /  23.8 °C 50.9 °F /  10.5 °C 30.4 in /  1029.3 hPa Calm   3 mph /  4.8 km/h 43 % 0 in /  0.0 mm
16:32 74.7 °F /  23.7 °C 50.7 °F /  10.4 °C 30.4 in /  1029.3 hPa SW 4 mph /  6.4 km/h 4 mph /  6.4 km/h 43 % 0 in /  0.0 mm
16:42 73.4 °F /  23.0 °C 50.7 °F /  10.4 °C 30.4 in /  1029.3 hPa SW 2 mph /  3.2 km/h 8 mph /  12.9 km/h 45 % 0 in /  0.0 mm
16:52 74.1 °F /  23.4 °C 50.2 °F /  10.1 °C 30.4 in /  1029.3 hPa Calm   5 mph /  8.0 km/h 43 % 0 in /  0.0 mm
16:57 74.3 °F /  23.5 °C 49.6 °F /  9.8 °C 30.4 in /  1029.3 hPa SE 1 mph /  1.6 km/h 4 mph /  6.4 km/h 42 % 0 in /  0.0 mm
17:02 74.5 °F /  23.6 °C 50.5 °F /  10.3 °C 30.4 in /  1029.3 hPa Calm   4 mph /  6.4 km/h 43 % 0 in /  0.0 mm
17:12 74.5 °F /  23.6 °C 49.8 °F /  9.9 °C 30.4 in /  1029.0 hPa Calm   5 mph /  8.0 km/h 42 % 0 in /  0.0 mm
17:22 74.5 °F /  23.6 °C 50.5 °F /  10.3 °C 30.4 in /  1029.0 hPa WSW 3 mph /  4.8 km/h 5 mph /  8.0 km/h 43 % 0 in /  0.0 mm
17:27 74.3 °F /  23.5 °C 50.9 °F /  10.5 °C 30.4 in /  1029.0 hPa SSW 2 mph /  3.2 km/h 5 mph /  8.0 km/h 44 % 0 in /  0.0 mm
17:32 74.5 °F /  23.6 °C 51.1 °F /  10.6 °C 30.4 in /  1029.0 hPa Calm   6 mph /  9.7 km/h 44 % 0 in /  0.0 mm
17:37 74.8 °F /  23.8 °C 51.4 °F /  10.8 °C 30.4 in /  1029.0 hPa SE 1 mph /  1.6 km/h 6 mph /  9.7 km/h 44 % 0 in /  0.0 mm
17:42 75 °F /  23.9 °C 51.6 °F /  10.9 °C 30.4 in /  1029.0 hPa South 1 mph /  1.6 km/h 4 mph /  6.4 km/h 44 % 0 in /  0.0 mm
17:52 74.5 °F /  23.6 °C 52.9 °F /  11.6 °C 30.4 in /  1028.7 hPa SW 1 mph /  1.6 km/h 5 mph /  8.0 km/h 47 % 0 in /  0.0 mm
17:57 75 °F /  23.9 °C 54 °F /  12.2 °C 30.4 in /  1028.7 hPa SSE 1 mph /  1.6 km/h 5 mph /  8.0 km/h 48 % 0 in /  0.0 mm
18:07 75.9 °F /  24.4 °C 53.1 °F /  11.7 °C 30.4 in /  1028.7 hPa Calm   3 mph /  4.8 km/h 45 % 0 in /  0.0 mm
18:12 75.9 °F /  24.4 °C 52.5 °F /  11.4 °C 30.4 in /  1028.7 hPa Calm   3 mph /  4.8 km/h 44 % 0 in /  0.0 mm
18:17 76.5 °F /  24.7 °C 51.6 °F /  10.9 °C 30.4 in /  1028.7 hPa SW 1 mph /  1.6 km/h 3 mph /  4.8 km/h 42 % 0 in /  0.0 mm
18:22 75.9 °F /  24.4 °C 51.8 °F /  11.0 °C 30.4 in /  1028.7 hPa Calm   1 mph /  1.6 km/h 43 % 0 in /  0.0 mm
18:32 75.9 °F /  24.4 °C 52.5 °F /  11.4 °C 30.4 in /  1028.7 hPa Calm   3 mph /  4.8 km/h 44 % 0 in /  0.0 mm
18:37 76.5 °F /  24.7 °C 52.9 °F /  11.6 °C 30.4 in /  1028.7 hPa Calm   3 mph /  4.8 km/h 44 % 0 in /  0.0 mm
18:42 76.3 °F /  24.6 °C 52.7 °F /  11.5 °C 30.4 in /  1028.7 hPa Calm   2 mph /  3.2 km/h 44 % 0 in /  0.0 mm
18:52 75.4 °F /  24.1 °C 52 °F /  11.1 °C 30.4 in /  1028.7 hPa East 2 mph /  3.2 km/h 2 mph /  3.2 km/h 44 % 0 in /  0.0 mm
19:02 76.3 °F /  24.6 °C 52.7 °F /  11.5 °C 30.4 in /  1028.7 hPa Calm   2 mph /  3.2 km/h 44 % 0 in /  0.0 mm
19:12 76.5 °F /  24.7 °C 51.6 °F /  10.9 °C 30.4 in /  1028.7 hPa Calm   2 mph /  3.2 km/h 42 % 0 in /  0.0 mm
19:22 77.4 °F /  25.2 °C 51.8 °F /  11.0 °C 30.4 in /  1028.7 hPa Calm   1 mph /  1.6 km/h 41 % 0 in /  0.0 mm
19:32 76.8 °F /  24.9 °C 51.3 °F /  10.7 °C 30.4 in /  1028.7 hPa Calm   2 mph /  3.2 km/h 41 % 0 in /  0.0 mm
19:37 76.6 °F /  24.8 °C 51.8 °F /  11.0 °C 30.4 in /  1028.7 hPa Calm   2 mph /  3.2 km/h 42 % 0 in /  0.0 mm
19:42 75.6 °F /  24.2 °C 51.4 °F /  10.8 °C 30.4 in /  1028.7 hPa Calm   2 mph /  3.2 km/h 43 % 0 in /  0.0 mm
19:52 74.7 °F /  23.7 °C 51.3 °F /  10.7 °C 30.4 in /  1028.7 hPa Calm     44 % 0 in /  0.0 mm
19:57 75 °F /  23.9 °C 54 °F /  12.2 °C 30.4 in /  1028.7 hPa Calm     48 % 0 in /  0.0 mm
20:02 75.6 °F /  24.2 °C 53.2 °F /  11.8 °C 30.4 in /  1028.7 hPa Calm     46 % 0 in /  0.0 mm
20:07 75.4 °F /  24.1 °C 53.8 °F /  12.1 °C 30.4 in /  1028.7 hPa Calm     47 % 0 in /  0.0 mm
20:12 74.8 °F /  23.8 °C 55 °F /  12.8 °C 30.4 in /  1028.7 hPa Calm     50 % 0 in /  0.0 mm
20:17 74.5 °F /  23.6 °C 56.7 °F /  13.7 °C 30.4 in /  1028.7 hPa Calm     54 % 0 in /  0.0 mm
20:22 74.1 °F /  23.4 °C 53.2 °F /  11.8 °C 30.4 in /  1028.7 hPa Calm     48 % 0 in /  0.0 mm
20:27 72.9 °F /  22.7 °C 51.4 °F /  10.8 °C 30.4 in /  1028.7 hPa Calm     47 % 0 in /  0.0 mm
20:32 72.7 °F /  22.6 °C 52.3 °F /  11.3 °C 30.4 in /  1028.7 hPa Calm     49 % 0 in /  0.0 mm
20:37 73.2 °F /  22.9 °C 52.9 °F /  11.6 °C 30.4 in /  1028.7 hPa Calm     49 % 0 in /  0.0 mm
20:42 73.8 °F /  23.2 °C 54.5 °F /  12.5 °C 30.4 in /  1028.7 hPa Calm     51 % 0 in /  0.0 mm
20:47 73.2 °F /  22.9 °C 54.5 °F /  12.5 °C 30.4 in /  1028.7 hPa Calm     52 % 0 in /  0.0 mm
20:52 71.8 °F /  22.1 °C 52.7 °F /  11.5 °C 30.4 in /  1028.7 hPa Calm     51 % 0 in /  0.0 mm
20:57 70.9 °F /  21.6 °C 52.3 °F /  11.3 °C 30.4 in /  1028.7 hPa Calm     52 % 0 in /  0.0 mm
21:02 70.3 °F /  21.3 °C 53.4 °F /  11.9 °C 30.4 in /  1028.7 hPa Calm     55 % 0 in /  0.0 mm
21:12 68.7 °F /  20.4 °C 52.9 °F /  11.6 °C 30.4 in /  1028.7 hPa Calm     57 % 0 in /  0.0 mm
21:17 68 °F /  20.0 °C 52.7 °F /  11.5 °C 30.4 in /  1028.7 hPa Calm     58 % 0 in /  0.0 mm
21:22 67.5 °F /  19.7 °C 53.6 °F /  12.0 °C 30.4 in /  1028.7 hPa Calm     61 % 0 in /  0.0 mm
21:32 66.7 °F /  19.3 °C 53.2 °F /  11.8 °C 30.4 in /  1029.0 hPa Calm     62 % 0 in /  0.0 mm
21:37 66.4 °F /  19.1 °C 53.4 °F /  11.9 °C 30.4 in /  1029.0 hPa Calm     63 % 0 in /  0.0 mm
21:42 65.8 °F /  18.8 °C 54.5 °F /  12.5 °C 30.4 in /  1029.0 hPa Calm     67 % 0 in /  0.0 mm
21:52 64.6 °F /  18.1 °C 54.1 °F /  12.3 °C 30.4 in /  1029.3 hPa Calm     69 % 0 in /  0.0 mm
22:02 64 °F /  17.8 °C 55.6 °F /  13.1 °C 30.4 in /  1029.3 hPa Calm     74 % 0 in /  0.0 mm
22:12 63 °F /  17.2 °C 54.9 °F /  12.7 °C 30.4 in /  1029.3 hPa Calm     75 % 0 in /  0.0 mm
22:17 62.8 °F /  17.1 °C 54.7 °F /  12.6 °C 30.4 in /  1029.3 hPa Calm     75 % 0 in /  0.0 mm
22:22 62.4 °F /  16.9 °C 54 °F /  12.2 °C 30.4 in /  1029.3 hPa Calm     74 % 0 in /  0.0 mm
22:32 62.4 °F /  16.9 °C 53.6 °F /  12.0 °C 30.4 in /  1029.3 hPa Calm   1 mph /  1.6 km/h 73 % 0 in /  0.0 mm
22:37 62.4 °F /  16.9 °C 53.6 °F /  12.0 °C 30.4 in /  1029.3 hPa NNW 2 mph /  3.2 km/h 2 mph /  3.2 km/h 73 % 0 in /  0.0 mm
22:42 62.4 °F /  16.9 °C 53.6 °F /  12.0 °C 30.4 in /  1029.3 hPa Calm   2 mph /  3.2 km/h 73 % 0 in /  0.0 mm
22:47 62.1 °F /  16.7 °C 53.6 °F /  12.0 °C 30.4 in /  1029.3 hPa NNW 1 mph /  1.6 km/h 2 mph /  3.2 km/h 74 % 0 in /  0.0 mm
22:52 61.9 °F /  16.6 °C 53.1 °F /  11.7 °C 30.4 in /  1029.3 hPa Calm   2 mph /  3.2 km/h 73 % 0 in /  0.0 mm
22:57 61.3 °F /  16.3 °C 53.4 °F /  11.9 °C 30.4 in /  1029.3 hPa NW 1 mph /  1.6 km/h 1 mph /  1.6 km/h 75 % 0 in /  0.0 mm
23:02 61.3 °F /  16.3 °C 53.1 °F /  11.7 °C 30.4 in /  1029.3 hPa NW 1 mph /  1.6 km/h 1 mph /  1.6 km/h 74 % 0 in /  0.0 mm
23:12 61.3 °F /  16.3 °C 53.1 °F /  11.7 °C 30.4 in /  1029.3 hPa NW 1 mph /  1.6 km/h 1 mph /  1.6 km/h 74 % 0 in /  0.0 mm
23:17 61 °F /  16.1 °C 52.7 °F /  11.5 °C 30.4 in /  1029.3 hPa Calm   1 mph /  1.6 km/h 74 % 0 in /  0.0 mm
23:22 60.4 °F /  15.8 °C 52.9 °F /  11.6 °C 30.4 in /  1029.3 hPa Calm   1 mph /  1.6 km/h 76 % 0 in /  0.0 mm
23:32 59.5 °F /  15.3 °C 52.3 °F /  11.3 °C 30.4 in /  1029.3 hPa Calm     77 % 0 in /  0.0 mm
23:37 59.9 °F /  15.5 °C 52.7 °F /  11.5 °C 30.4 in /  1029.3 hPa Calm     77 % 0 in /  0.0 mm
23:42 60.1 °F /  15.6 °C 52.5 °F /  11.4 °C 30.4 in /  1029.3 hPa Calm   1 mph /  1.6 km/h 76 % 0 in /  0.0 mm
23:52 59.7 °F /  15.4 °C 52.2 °F /  11.2 °C 30.4 in /  1029.3 hPa NW 1 mph /  1.6 km/h 2 mph /  3.2 km/h 76 % 0 in /  0.0 mm
23:57 59.7 °F /  15.4 °C 52.5 °F /  11.4 °C 30.4 in /  1029.3 hPa Calm   2 mph /  3.2 km/h 77 % 0 in /  0.0 mm
Meteo18
Compliments of Weather Underground - 4 mb

Script developed by  Jim McMurry - jmcmurry@mwt.net Adapted for the template by  Wim van der Kuil - Leuven-Template.eu

You find our weather info also at:

European Weather Network

Weather Underground

Equipment we use:

Weather-station
Davis Vue

Weather-program
Meteohub

Weather-server
Raspberry PI 2 B+

Provider
1 and 1

Davis Vue

Meteohub

Raspberry PI 2 B+

1 and 1